sensor_id;sensor_type;location;lat;lon;timestamp;pressure;altitude;pressure_sealevel;temperature;humidity
77954;BME280;67151;52.544;6.034;2023-08-30T00:00:02;100780;;;24.7;47.3
77954;BME280;67151;52.544;6.034;2023-08-30T00:00:18;100780;;;24.7;47.3
77954;BME280;67151;52.544;6.034;2023-08-30T00:00:31;100780;;;24.7;47.4
77954;BME280;67151;52.544;6.034;2023-08-30T00:00:46;100780;;;24.7;47.3
77954;BME280;67151;52.544;6.034;2023-08-30T00:01:02;100780;;;24.7;47.3
77954;BME280;67151;52.544;6.034;2023-08-30T00:01:16;100780;;;24.7;47.3
77954;BME280;67151;52.544;6.034;2023-08-30T00:01:31;100780;;;24.7;47.3
77954;BME280;67151;52.544;6.034;2023-08-30T00:01:46;100780;;;24.7;47.3
77954;BME280;67151;52.544;6.034;2023-08-30T00:02:01;100780;;;24.7;47.3
77954;BME280;67151;52.544;6.034;2023-08-30T00:02:16;100770;;;24.7;47.3
77954;BME280;67151;52.544;6.034;2023-08-30T00:02:31;100780;;;24.7;47.3
77954;BME280;67151;52.544;6.034;2023-08-30T00:02:46;100770;;;24.7;47.3
77954;BME280;67151;52.544;6.034;2023-08-30T00:03:01;100780;;;24.7;47.3
77954;BME280;67151;52.544;6.034;2023-08-30T00:03:16;100770;;;24.7;47.3
77954;BME280;67151;52.544;6.034;2023-08-30T00:03:31;100780;;;24.7;47.3
77954;BME280;67151;52.544;6.034;2023-08-30T00:03:46;100780;;;24.7;47.3
77954;BME280;67151;52.544;6.034;2023-08-30T00:04:01;100770;;;24.7;47.3
77954;BME280;67151;52.544;6.034;2023-08-30T00:04:16;100770;;;24.7;47.4
77954;BME280;67151;52.544;6.034;2023-08-30T00:04:31;100780;;;24.7;47.3
77954;BME280;67151;52.544;6.034;2023-08-30T00:04:46;100770;;;24.7;47.3
77954;BME280;67151;52.544;6.034;2023-08-30T00:05:02;100770;;;24.7;47.3
77954;BME280;67151;52.544;6.034;2023-08-30T00:05:16;100770;;;24.7;47.3
77954;BME280;67151;52.544;6.034;2023-08-30T00:05:31;100770;;;24.7;47.3
77954;BME280;67151;52.544;6.034;2023-08-30T00:05:46;100770;;;24.7;47.3
77954;BME280;67151;52.544;6.034;2023-08-30T00:06:02;100760;;;24.7;47.2
77954;BME280;67151;52.544;6.034;2023-08-30T00:06:16;100770;;;24.7;47.2
77954;BME280;67151;52.544;6.034;2023-08-30T00:06:31;100770;;;24.6;47.3
77954;BME280;67151;52.544;6.034;2023-08-30T00:06:46;100770;;;24.6;47.3
77954;BME280;67151;52.544;6.034;2023-08-30T00:07:01;100770;;;24.7;47.2
77954;BME280;67151;52.544;6.034;2023-08-30T00:07:16;100760;;;24.7;47.2
77954;BME280;67151;52.544;6.034;2023-08-30T00:07:32;100770;;;24.7;47.2
77954;BME280;67151;52.544;6.034;2023-08-30T00:07:46;100770;;;24.7;47.2
77954;BME280;67151;52.544;6.034;2023-08-30T00:08:02;100760;;;24.7;47.2
77954;BME280;67151;52.544;6.034;2023-08-30T00:08:16;100770;;;24.7;47.2
77954;BME280;67151;52.544;6.034;2023-08-30T00:08:31;100770;;;24.7;47.2
77954;BME280;67151;52.544;6.034;2023-08-30T00:08:46;100770;;;24.7;47.2
77954;BME280;67151;52.544;6.034;2023-08-30T00:09:01;100770;;;24.7;47.3
77954;BME280;67151;52.544;6.034;2023-08-30T00:09:16;100760;;;24.7;47.3
77954;BME280;67151;52.544;6.034;2023-08-30T00:09:31;100770;;;24.7;47.2
77954;BME280;67151;52.544;6.034;2023-08-30T00:09:46;100760;;;24.7;47.2
77954;BME280;67151;52.544;6.034;2023-08-30T00:10:01;100760;;;24.7;47.1
77954;BME280;67151;52.544;6.034;2023-08-30T00:10:16;100760;;;24.7;47.1
77954;BME280;67151;52.544;6.034;2023-08-30T00:10:31;100770;;;24.7;47
77954;BME280;67151;52.544;6.034;2023-08-30T00:10:47;100770;;;24.7;47.1
77954;BME280;67151;52.544;6.034;2023-08-30T00:11:01;100770;;;24.6;47.2
77954;BME280;67151;52.544;6.034;2023-08-30T00:11:16;100760;;;24.6;47.1
77954;BME280;67151;52.544;6.034;2023-08-30T00:11:31;100770;;;24.6;47.1
77954;BME280;67151;52.544;6.034;2023-08-30T00:11:46;100770;;;24.6;47.1
77954;BME280;67151;52.544;6.034;2023-08-30T00:12:01;100770;;;24.7;47.1
77954;BME280;67151;52.544;6.034;2023-08-30T00:12:16;100770;;;24.7;47.1
77954;BME280;67151;52.544;6.034;2023-08-30T00:12:31;100770;;;24.6;47
77954;BME280;67151;52.544;6.034;2023-08-30T00:12:46;100770;;;24.6;47
77954;BME280;67151;52.544;6.034;2023-08-30T00:13:01;100760;;;24.6;47
77954;BME280;67151;52.544;6.034;2023-08-30T00:13:16;100760;;;24.6;47.1
77954;BME280;67151;52.544;6.034;2023-08-30T00:13:32;100760;;;24.6;47
77954;BME280;67151;52.544;6.034;2023-08-30T00:13:46;100760;;;24.6;47
77954;BME280;67151;52.544;6.034;2023-08-30T00:14:02;100760;;;24.6;47
77954;BME280;67151;52.544;6.034;2023-08-30T00:14:16;100760;;;24.6;47
77954;BME280;67151;52.544;6.034;2023-08-30T00:14:31;100760;;;24.7;47
77954;BME280;67151;52.544;6.034;2023-08-30T00:14:46;100760;;;24.6;47
77954;BME280;67151;52.544;6.034;2023-08-30T00:15:01;100760;;;24.6;47
77954;BME280;67151;52.544;6.034;2023-08-30T00:15:16;100760;;;24.6;47
77954;BME280;67151;52.544;6.034;2023-08-30T00:15:31;100760;;;24.6;46.9
77954;BME280;67151;52.544;6.034;2023-08-30T00:15:46;100760;;;24.6;47
77954;BME280;67151;52.544;6.034;2023-08-30T00:16:03;100760;;;24.6;47
77954;BME280;67151;52.544;6.034;2023-08-30T00:16:16;100760;;;24.6;47
77954;BME280;67151;52.544;6.034;2023-08-30T00:16:31;100760;;;24.6;46.9
77954;BME280;67151;52.544;6.034;2023-08-30T00:16:46;100750;;;24.6;46.9
77954;BME280;67151;52.544;6.034;2023-08-30T00:17:01;100760;;;24.6;46.9
77954;BME280;67151;52.544;6.034;2023-08-30T00:17:16;100750;;;24.6;47
77954;BME280;67151;52.544;6.034;2023-08-30T00:17:31;100750;;;24.6;46.9
77954;BME280;67151;52.544;6.034;2023-08-30T00:17:46;100760;;;24.6;46.9
77954;BME280;67151;52.544;6.034;2023-08-30T00:18:02;100750;;;24.6;46.9
77954;BME280;67151;52.544;6.034;2023-08-30T00:18:16;100750;;;24.6;46.9
77954;BME280;67151;52.544;6.034;2023-08-30T00:18:31;100750;;;24.6;46.9
77954;BME280;67151;52.544;6.034;2023-08-30T00:18:46;100740;;;24.6;47
77954;BME280;67151;52.544;6.034;2023-08-30T00:19:01;100750;;;24.6;46.9
77954;BME280;67151;52.544;6.034;2023-08-30T00:19:16;100750;;;24.6;46.9
77954;BME280;67151;52.544;6.034;2023-08-30T00:19:31;100750;;;24.6;46.9
77954;BME280;67151;52.544;6.034;2023-08-30T00:19:46;100740;;;24.6;46.9
77954;BME280;67151;52.544;6.034;2023-08-30T00:20:01;100750;;;24.6;46.8
77954;BME280;67151;52.544;6.034;2023-08-30T00:20:16;100750;;;24.6;46.9
77954;BME280;67151;52.544;6.034;2023-08-30T00:20:31;100750;;;24.6;46.9
77954;BME280;67151;52.544;6.034;2023-08-30T00:20:46;100750;;;24.6;46.9
77954;BME280;67151;52.544;6.034;2023-08-30T00:21:01;100750;;;24.6;47
77954;BME280;67151;52.544;6.034;2023-08-30T00:21:16;100750;;;24.6;46.9
77954;BME280;67151;52.544;6.034;2023-08-30T00:21:31;100750;;;24.6;46.9
77954;BME280;67151;52.544;6.034;2023-08-30T00:21:47;100750;;;24.6;46.9
77954;BME280;67151;52.544;6.034;2023-08-30T00:22:01;100750;;;24.6;46.9
77954;BME280;67151;52.544;6.034;2023-08-30T00:22:16;100740;;;24.6;46.9
77954;BME280;67151;52.544;6.034;2023-08-30T00:22:31;100750;;;24.6;46.8
77954;BME280;67151;52.544;6.034;2023-08-30T00:22:47;100750;;;24.6;46.9
77954;BME280;67151;52.544;6.034;2023-08-30T00:23:01;100750;;;24.6;46.9
77954;BME280;67151;52.544;6.034;2023-08-30T00:23:16;100750;;;24.6;46.9
77954;BME280;67151;52.544;6.034;2023-08-30T00:23:31;100740;;;24.6;46.9
77954;BME280;67151;52.544;6.034;2023-08-30T00:23:46;100750;;;24.6;46.9
77954;BME280;67151;52.544;6.034;2023-08-30T00:24:01;100750;;;24.6;46.9
77954;BME280;67151;52.544;6.034;2023-08-30T00:24:16;100750;;;24.6;46.8
77954;BME280;67151;52.544;6.034;2023-08-30T00:24:31;100740;;;24.6;46.8
77954;BME280;67151;52.544;6.034;2023-08-30T00:24:46;100750;;;24.6;46.8
77954;BME280;67151;52.544;6.034;2023-08-30T00:25:01;100750;;;24.6;46.8
77954;BME280;67151;52.544;6.034;2023-08-30T00:25:16;100750;;;24.6;46.8
77954;BME280;67151;52.544;6.034;2023-08-30T00:25:31;100750;;;24.6;46.8
77954;BME280;67151;52.544;6.034;2023-08-30T00:25:46;100750;;;24.6;46.7
77954;BME280;67151;52.544;6.034;2023-08-30T00:26:01;100750;;;24.6;46.8
77954;BME280;67151;52.544;6.034;2023-08-30T00:26:16;100740;;;24.6;46.8
77954;BME280;67151;52.544;6.034;2023-08-30T00:26:31;100740;;;24.6;46.7
77954;BME280;67151;52.544;6.034;2023-08-30T00:26:46;100740;;;24.6;46.8
77954;BME280;67151;52.544;6.034;2023-08-30T00:27:01;100740;;;24.6;46.7
77954;BME280;67151;52.544;6.034;2023-08-30T00:27:16;100750;;;24.6;46.7
77954;BME280;67151;52.544;6.034;2023-08-30T00:27:31;100740;;;24.6;46.7
77954;BME280;67151;52.544;6.034;2023-08-30T00:27:46;100740;;;24.6;46.7
77954;BME280;67151;52.544;6.034;2023-08-30T00:28:01;100750;;;24.6;46.7
77954;BME280;67151;52.544;6.034;2023-08-30T00:28:16;100750;;;24.6;46.7
77954;BME280;67151;52.544;6.034;2023-08-30T00:28:31;100750;;;24.6;46.8
77954;BME280;67151;52.544;6.034;2023-08-30T00:28:46;100750;;;24.6;46.7
77954;BME280;67151;52.544;6.034;2023-08-30T00:29:01;100740;;;24.6;46.7
77954;BME280;67151;52.544;6.034;2023-08-30T00:29:16;100740;;;24.6;46.7
77954;BME280;67151;52.544;6.034;2023-08-30T00:29:32;100740;;;24.6;46.7
77954;BME280;67151;52.544;6.034;2023-08-30T00:29:46;100740;;;24.6;46.7
77954;BME280;67151;52.544;6.034;2023-08-30T00:30:01;100750;;;24.6;46.6
77954;BME280;67151;52.544;6.034;2023-08-30T00:30:16;100740;;;24.6;46.7
77954;BME280;67151;52.544;6.034;2023-08-30T00:30:31;100740;;;24.6;46.7
77954;BME280;67151;52.544;6.034;2023-08-30T00:30:46;100740;;;24.6;46.7
77954;BME280;67151;52.544;6.034;2023-08-30T00:31:01;100750;;;24.6;46.6
77954;BME280;67151;52.544;6.034;2023-08-30T00:31:16;100740;;;24.6;46.6
77954;BME280;67151;52.544;6.034;2023-08-30T00:31:31;100740;;;24.6;46.7
77954;BME280;67151;52.544;6.034;2023-08-30T00:31:46;100750;;;24.6;46.6
77954;BME280;67151;52.544;6.034;2023-08-30T00:32:01;100750;;;24.6;46.6
77954;BME280;67151;52.544;6.034;2023-08-30T00:32:16;100740;;;24.6;46.6
77954;BME280;67151;52.544;6.034;2023-08-30T00:32:31;100750;;;24.6;46.7
77954;BME280;67151;52.544;6.034;2023-08-30T00:32:46;100740;;;24.6;46.7
77954;BME280;67151;52.544;6.034;2023-08-30T00:33:01;100740;;;24.6;46.7
77954;BME280;67151;52.544;6.034;2023-08-30T00:33:16;100740;;;24.6;46.6
77954;BME280;67151;52.544;6.034;2023-08-30T00:33:31;100750;;;24.6;46.6
77954;BME280;67151;52.544;6.034;2023-08-30T00:33:48;100740;;;24.6;46.6
77954;BME280;67151;52.544;6.034;2023-08-30T00:34:01;100740;;;24.6;46.6
77954;BME280;67151;52.544;6.034;2023-08-30T00:34:16;100740;;;24.6;46.7
77954;BME280;67151;52.544;6.034;2023-08-30T00:34:31;100740;;;24.6;46.7
77954;BME280;67151;52.544;6.034;2023-08-30T00:34:49;100750;;;24.6;46.7
77954;BME280;67151;52.544;6.034;2023-08-30T00:35:01;100750;;;24.6;46.6
77954;BME280;67151;52.544;6.034;2023-08-30T00:35:16;100750;;;24.6;46.6
77954;BME280;67151;52.544;6.034;2023-08-30T00:35:31;100740;;;24.6;46.6
77954;BME280;67151;52.544;6.034;2023-08-30T00:35:46;100740;;;24.6;46.6
77954;BME280;67151;52.544;6.034;2023-08-30T00:36:01;100740;;;24.6;46.6
77954;BME280;67151;52.544;6.034;2023-08-30T00:36:16;100750;;;24.6;46.7
77954;BME280;67151;52.544;6.034;2023-08-30T00:36:31;100750;;;24.6;46.7
77954;BME280;67151;52.544;6.034;2023-08-30T00:36:47;100750;;;24.6;46.7
77954;BME280;67151;52.544;6.034;2023-08-30T00:37:01;100740;;;24.6;46.7
77954;BME280;67151;52.544;6.034;2023-08-30T00:37:16;100740;;;24.6;46.7
77954;BME280;67151;52.544;6.034;2023-08-30T00:37:31;100750;;;24.6;46.6
77954;BME280;67151;52.544;6.034;2023-08-30T00:37:46;100740;;;24.6;46.6
77954;BME280;67151;52.544;6.034;2023-08-30T00:38:01;100740;;;24.6;46.6
77954;BME280;67151;52.544;6.034;2023-08-30T00:38:16;100740;;;24.6;46.7
77954;BME280;67151;52.544;6.034;2023-08-30T00:38:32;100740;;;24.6;46.7
77954;BME280;67151;52.544;6.034;2023-08-30T00:38:46;100750;;;24.6;46.7
77954;BME280;67151;52.544;6.034;2023-08-30T00:39:01;100740;;;24.6;46.7
77954;BME280;67151;52.544;6.034;2023-08-30T00:39:16;100740;;;24.6;46.7
77954;BME280;67151;52.544;6.034;2023-08-30T00:39:31;100740;;;24.6;46.7
77954;BME280;67151;52.544;6.034;2023-08-30T00:39:46;100750;;;24.6;46.7
77954;BME280;67151;52.544;6.034;2023-08-30T00:40:01;100740;;;24.6;46.7
77954;BME280;67151;52.544;6.034;2023-08-30T00:40:16;100750;;;24.6;46.7
77954;BME280;67151;52.544;6.034;2023-08-30T00:40:37;100750;;;24.6;46.7
77954;BME280;67151;52.544;6.034;2023-08-30T00:40:46;100750;;;24.6;46.7
77954;BME280;67151;52.544;6.034;2023-08-30T00:41:01;100740;;;24.6;46.7
77954;BME280;67151;52.544;6.034;2023-08-30T00:41:16;100750;;;24.6;46.7
77954;BME280;67151;52.544;6.034;2023-08-30T00:41:31;100740;;;24.6;46.7
77954;BME280;67151;52.544;6.034;2023-08-30T00:41:46;100750;;;24.6;46.7
77954;BME280;67151;52.544;6.034;2023-08-30T00:42:01;100740;;;24.6;46.7
77954;BME280;67151;52.544;6.034;2023-08-30T00:42:17;100740;;;24.6;46.7
77954;BME280;67151;52.544;6.034;2023-08-30T00:42:31;100740;;;24.6;46.7
77954;BME280;67151;52.544;6.034;2023-08-30T00:42:47;100740;;;24.6;46.7
77954;BME280;67151;52.544;6.034;2023-08-30T00:43:01;100740;;;24.6;46.7
77954;BME280;67151;52.544;6.034;2023-08-30T00:43:16;100740;;;24.6;46.6
77954;BME280;67151;52.544;6.034;2023-08-30T00:43:31;100740;;;24.6;46.7
77954;BME280;67151;52.544;6.034;2023-08-30T00:43:46;100740;;;24.6;46.7
77954;BME280;67151;52.544;6.034;2023-08-30T00:44:01;100740;;;24.6;46.7
77954;BME280;67151;52.544;6.034;2023-08-30T00:44:16;100750;;;24.6;46.7
77954;BME280;67151;52.544;6.034;2023-08-30T00:44:31;100740;;;24.6;46.7
77954;BME280;67151;52.544;6.034;2023-08-30T00:44:46;100740;;;24.6;46.7
77954;BME280;67151;52.544;6.034;2023-08-30T00:45:01;100750;;;24.6;46.7
77954;BME280;67151;52.544;6.034;2023-08-30T00:45:16;100740;;;24.6;46.7
77954;BME280;67151;52.544;6.034;2023-08-30T00:45:31;100740;;;24.6;46.7
77954;BME280;67151;52.544;6.034;2023-08-30T00:45:46;100740;;;24.6;46.7
77954;BME280;67151;52.544;6.034;2023-08-30T00:46:01;100750;;;24.6;46.7
77954;BME280;67151;52.544;6.034;2023-08-30T00:46:16;100740;;;24.6;46.7
77954;BME280;67151;52.544;6.034;2023-08-30T00:46:31;100740;;;24.6;46.7
77954;BME280;67151;52.544;6.034;2023-08-30T00:46:46;100740;;;24.6;46.7
77954;BME280;67151;52.544;6.034;2023-08-30T00:47:02;100730;;;24.6;46.7
77954;BME280;67151;52.544;6.034;2023-08-30T00:47:16;100740;;;24.6;46.7
77954;BME280;67151;52.544;6.034;2023-08-30T00:47:31;100740;;;24.6;46.7
77954;BME280;67151;52.544;6.034;2023-08-30T00:47:46;100740;;;24.6;46.7
77954;BME280;67151;52.544;6.034;2023-08-30T00:48:01;100750;;;24.5;46.7
77954;BME280;67151;52.544;6.034;2023-08-30T00:48:17;100730;;;24.5;46.7
77954;BME280;67151;52.544;6.034;2023-08-30T00:48:31;100740;;;24.6;46.7
77954;BME280;67151;52.544;6.034;2023-08-30T00:48:47;100740;;;24.5;46.7
77954;BME280;67151;52.544;6.034;2023-08-30T00:49:01;100740;;;24.6;46.7
77954;BME280;67151;52.544;6.034;2023-08-30T00:49:16;100740;;;24.6;46.7
77954;BME280;67151;52.544;6.034;2023-08-30T00:49:31;100740;;;24.5;46.8
77954;BME280;67151;52.544;6.034;2023-08-30T00:49:46;100740;;;24.5;46.7
77954;BME280;67151;52.544;6.034;2023-08-30T00:50:01;100740;;;24.6;46.7
77954;BME280;67151;52.544;6.034;2023-08-30T00:50:16;100740;;;24.6;46.7
77954;BME280;67151;52.544;6.034;2023-08-30T00:50:31;100740;;;24.6;46.7
77954;BME280;67151;52.544;6.034;2023-08-30T00:50:46;100740;;;24.6;46.7
77954;BME280;67151;52.544;6.034;2023-08-30T00:51:01;100740;;;24.6;46.7
77954;BME280;67151;52.544;6.034;2023-08-30T00:51:16;100730;;;24.6;46.7
77954;BME280;67151;52.544;6.034;2023-08-30T00:51:31;100740;;;24.6;46.7
77954;BME280;67151;52.544;6.034;2023-08-30T00:51:46;100730;;;24.6;46.7
77954;BME280;67151;52.544;6.034;2023-08-30T00:52:02;100730;;;24.6;46.7
77954;BME280;67151;52.544;6.034;2023-08-30T00:52:16;100740;;;24.6;46.7
77954;BME280;67151;52.544;6.034;2023-08-30T00:52:31;100740;;;24.6;46.7
77954;BME280;67151;52.544;6.034;2023-08-30T00:52:46;100730;;;24.6;46.7
77954;BME280;67151;52.544;6.034;2023-08-30T00:53:01;100740;;;24.6;46.7
77954;BME280;67151;52.544;6.034;2023-08-30T00:53:16;100730;;;24.6;46.7
77954;BME280;67151;52.544;6.034;2023-08-30T00:53:31;100740;;;24.6;46.7
77954;BME280;67151;52.544;6.034;2023-08-30T00:53:46;100730;;;24.6;46.7
77954;BME280;67151;52.544;6.034;2023-08-30T00:54:01;100740;;;24.6;46.7
77954;BME280;67151;52.544;6.034;2023-08-30T00:54:16;100740;;;24.6;46.7
77954;BME280;67151;52.544;6.034;2023-08-30T00:54:31;100730;;;24.6;46.7
77954;BME280;67151;52.544;6.034;2023-08-30T00:54:46;100730;;;24.6;46.7
77954;BME280;67151;52.544;6.034;2023-08-30T00:55:01;100730;;;24.6;46.7
77954;BME280;67151;52.544;6.034;2023-08-30T00:55:16;100730;;;24.6;46.7
77954;BME280;67151;52.544;6.034;2023-08-30T00:55:31;100740;;;24.6;46.7
77954;BME280;67151;52.544;6.034;2023-08-30T00:55:46;100740;;;24.6;46.7
77954;BME280;67151;52.544;6.034;2023-08-30T00:56:01;100730;;;24.6;46.7
77954;BME280;67151;52.544;6.034;2023-08-30T00:56:16;100730;;;24.6;46.7
77954;BME280;67151;52.544;6.034;2023-08-30T00:56:32;100730;;;24.6;46.7
77954;BME280;67151;52.544;6.034;2023-08-30T00:56:46;100730;;;24.6;46.8
77954;BME280;67151;52.544;6.034;2023-08-30T00:57:01;100730;;;24.5;46.8
77954;BME280;67151;52.544;6.034;2023-08-30T00:57:16;100730;;;24.6;46.7
77954;BME280;67151;52.544;6.034;2023-08-30T00:57:31;100730;;;24.6;46.7
77954;BME280;67151;52.544;6.034;2023-08-30T00:57:46;100730;;;24.6;46.7
77954;BME280;67151;52.544;6.034;2023-08-30T00:58:01;100730;;;24.6;46.7
77954;BME280;67151;52.544;6.034;2023-08-30T00:58:16;100730;;;24.6;46.7
77954;BME280;67151;52.544;6.034;2023-08-30T00:58:31;100730;;;24.6;46.8
77954;BME280;67151;52.544;6.034;2023-08-30T00:58:46;100730;;;24.6;46.8
77954;BME280;67151;52.544;6.034;2023-08-30T00:59:01;100730;;;24.6;46.8
77954;BME280;67151;52.544;6.034;2023-08-30T00:59:16;100730;;;24.6;46.8
77954;BME280;67151;52.544;6.034;2023-08-30T00:59:32;100740;;;24.6;46.8
77954;BME280;67151;52.544;6.034;2023-08-30T00:59:46;100730;;;24.6;46.8
77954;BME280;67151;52.544;6.034;2023-08-30T01:00:02;100730;;;24.6;46.8
77954;BME280;67151;52.544;6.034;2023-08-30T01:00:16;100730;;;24.6;46.8
77954;BME280;67151;52.544;6.034;2023-08-30T01:00:32;100730;;;24.5;46.8
77954;BME280;67151;52.544;6.034;2023-08-30T01:00:46;100730;;;24.6;46.8
77954;BME280;67151;52.544;6.034;2023-08-30T01:01:01;100730;;;24.6;46.8
77954;BME280;67151;52.544;6.034;2023-08-30T01:01:16;100730;;;24.6;46.8
77954;BME280;67151;52.544;6.034;2023-08-30T01:01:31;100730;;;24.6;46.8
77954;BME280;67151;52.544;6.034;2023-08-30T01:01:46;100730;;;24.6;46.8
77954;BME280;67151;52.544;6.034;2023-08-30T01:02:01;100730;;;24.6;46.8
77954;BME280;67151;52.544;6.034;2023-08-30T01:02:16;100730;;;24.5;46.8
77954;BME280;67151;52.544;6.034;2023-08-30T01:02:31;100730;;;24.6;46.9
77954;BME280;67151;52.544;6.034;2023-08-30T01:02:46;100730;;;24.6;46.8
77954;BME280;67151;52.544;6.034;2023-08-30T01:03:01;100730;;;24.5;46.8
77954;BME280;67151;52.544;6.034;2023-08-30T01:03:16;100740;;;24.5;46.9
77954;BME280;67151;52.544;6.034;2023-08-30T01:03:31;100740;;;24.6;46.8
77954;BME280;67151;52.544;6.034;2023-08-30T01:03:46;100740;;;24.6;46.9
77954;BME280;67151;52.544;6.034;2023-08-30T01:04:01;100740;;;24.5;46.9
77954;BME280;67151;52.544;6.034;2023-08-30T01:04:16;100740;;;24.5;46.8
77954;BME280;67151;52.544;6.034;2023-08-30T01:04:31;100740;;;24.6;46.8
77954;BME280;67151;52.544;6.034;2023-08-30T01:04:46;100740;;;24.6;46.8
77954;BME280;67151;52.544;6.034;2023-08-30T01:05:02;100740;;;24.6;46.8
77954;BME280;67151;52.544;6.034;2023-08-30T01:05:16;100740;;;24.6;46.8
77954;BME280;67151;52.544;6.034;2023-08-30T01:05:31;100740;;;24.6;46.8
77954;BME280;67151;52.544;6.034;2023-08-30T01:05:46;100740;;;24.6;46.8
77954;BME280;67151;52.544;6.034;2023-08-30T01:06:01;100740;;;24.6;46.8
77954;BME280;67151;52.544;6.034;2023-08-30T01:06:16;100730;;;24.6;46.7
77954;BME280;67151;52.544;6.034;2023-08-30T01:06:31;100740;;;24.6;46.8
77954;BME280;67151;52.544;6.034;2023-08-30T01:06:46;100740;;;24.6;46.8
77954;BME280;67151;52.544;6.034;2023-08-30T01:07:02;100730;;;24.6;46.8
77954;BME280;67151;52.544;6.034;2023-08-30T01:07:16;100730;;;24.6;46.8
77954;BME280;67151;52.544;6.034;2023-08-30T01:07:31;100740;;;24.6;46.7
77954;BME280;67151;52.544;6.034;2023-08-30T01:07:46;100730;;;24.6;46.7
77954;BME280;67151;52.544;6.034;2023-08-30T01:08:01;100740;;;24.5;46.8
77954;BME280;67151;52.544;6.034;2023-08-30T01:08:16;100740;;;24.6;46.8
77954;BME280;67151;52.544;6.034;2023-08-30T01:08:31;100740;;;24.6;46.8
77954;BME280;67151;52.544;6.034;2023-08-30T01:08:46;100740;;;24.6;46.8
77954;BME280;67151;52.544;6.034;2023-08-30T01:09:01;100740;;;24.6;46.8
77954;BME280;67151;52.544;6.034;2023-08-30T01:09:16;100740;;;24.5;46.8
77954;BME280;67151;52.544;6.034;2023-08-30T01:09:31;100730;;;24.5;46.9
77954;BME280;67151;52.544;6.034;2023-08-30T01:09:46;100740;;;24.6;46.8
77954;BME280;67151;52.544;6.034;2023-08-30T01:10:01;100740;;;24.5;46.8
77954;BME280;67151;52.544;6.034;2023-08-30T01:10:16;100740;;;24.6;46.9
77954;BME280;67151;52.544;6.034;2023-08-30T01:10:35;100730;;;24.6;46.8
77954;BME280;67151;52.544;6.034;2023-08-30T01:10:50;100740;;;24.6;46.8
77954;BME280;67151;52.544;6.034;2023-08-30T01:11:02;100740;;;24.6;46.8
77954;BME280;67151;52.544;6.034;2023-08-30T01:11:18;100730;;;24.5;46.8
77954;BME280;67151;52.544;6.034;2023-08-30T01:11:32;100730;;;24.6;46.8
77954;BME280;67151;52.544;6.034;2023-08-30T01:11:48;100730;;;24.6;46.8
77954;BME280;67151;52.544;6.034;2023-08-30T01:12:03;100740;;;24.6;46.8
77954;BME280;67151;52.544;6.034;2023-08-30T01:12:17;100730;;;24.6;46.8
77954;BME280;67151;52.544;6.034;2023-08-30T01:12:33;100740;;;24.6;46.8
77954;BME280;67151;52.544;6.034;2023-08-30T01:12:47;100740;;;24.6;46.9
77954;BME280;67151;52.544;6.034;2023-08-30T01:13:03;100740;;;24.6;46.9
77954;BME280;67151;52.544;6.034;2023-08-30T01:13:18;100740;;;24.6;46.9
77954;BME280;67151;52.544;6.034;2023-08-30T01:13:33;100740;;;24.6;46.8
77954;BME280;67151;52.544;6.034;2023-08-30T01:13:48;100740;;;24.6;46.9
77954;BME280;67151;52.544;6.034;2023-08-30T01:14:03;100740;;;24.5;46.9
77954;BME280;67151;52.544;6.034;2023-08-30T01:14:17;100740;;;24.6;46.9
77954;BME280;67151;52.544;6.034;2023-08-30T01:14:34;100740;;;24.6;46.9
77954;BME280;67151;52.544;6.034;2023-08-30T01:14:49;100740;;;24.6;46.9
77954;BME280;67151;52.544;6.034;2023-08-30T01:15:02;100740;;;24.5;46.9
77954;BME280;67151;52.544;6.034;2023-08-30T01:15:18;100740;;;24.6;46.9
77954;BME280;67151;52.544;6.034;2023-08-30T01:15:31;100740;;;24.5;46.9
77954;BME280;67151;52.544;6.034;2023-08-30T01:15:47;100730;;;24.5;46.9
77954;BME280;67151;52.544;6.034;2023-08-30T01:16:01;100740;;;24.5;47
77954;BME280;67151;52.544;6.034;2023-08-30T01:16:16;100740;;;24.5;46.9
77954;BME280;67151;52.544;6.034;2023-08-30T01:16:31;100750;;;24.5;46.9
77954;BME280;67151;52.544;6.034;2023-08-30T01:16:46;100740;;;24.5;46.9
77954;BME280;67151;52.544;6.034;2023-08-30T01:17:01;100730;;;24.5;47
77954;BME280;67151;52.544;6.034;2023-08-30T01:17:16;100730;;;24.5;46.9
77954;BME280;67151;52.544;6.034;2023-08-30T01:17:31;100740;;;24.6;46.9
77954;BME280;67151;52.544;6.034;2023-08-30T01:17:47;100740;;;24.5;46.9
77954;BME280;67151;52.544;6.034;2023-08-30T01:18:01;100740;;;24.5;47
77954;BME280;67151;52.544;6.034;2023-08-30T01:18:17;100740;;;24.6;47
77954;BME280;67151;52.544;6.034;2023-08-30T01:18:32;100740;;;24.5;47
77954;BME280;67151;52.544;6.034;2023-08-30T01:18:47;100730;;;24.6;47
77954;BME280;67151;52.544;6.034;2023-08-30T01:19:03;100730;;;24.5;47
77954;BME280;67151;52.544;6.034;2023-08-30T01:19:21;100730;;;24.5;47
77954;BME280;67151;52.544;6.034;2023-08-30T01:19:36;100740;;;24.5;47
77954;BME280;67151;52.544;6.034;2023-08-30T01:19:48;100730;;;24.6;47
77954;BME280;67151;52.544;6.034;2023-08-30T01:20:03;100730;;;24.6;47
77954;BME280;67151;52.544;6.034;2023-08-30T01:20:17;100730;;;24.6;47
77954;BME280;67151;52.544;6.034;2023-08-30T01:20:32;100730;;;24.5;47
77954;BME280;67151;52.544;6.034;2023-08-30T01:20:46;100730;;;24.6;47
77954;BME280;67151;52.544;6.034;2023-08-30T01:21:02;100730;;;24.6;47
77954;BME280;67151;52.544;6.034;2023-08-30T01:21:20;100730;;;24.6;47
77954;BME280;67151;52.544;6.034;2023-08-30T01:21:32;100730;;;24.6;46.9
77954;BME280;67151;52.544;6.034;2023-08-30T01:21:48;100730;;;24.6;46.9
77954;BME280;67151;52.544;6.034;2023-08-30T01:22:02;100740;;;24.6;46.9
77954;BME280;67151;52.544;6.034;2023-08-30T01:22:17;100730;;;24.6;46.9
77954;BME280;67151;52.544;6.034;2023-08-30T01:22:37;100730;;;24.6;47
77954;BME280;67151;52.544;6.034;2023-08-30T01:22:47;100730;;;24.6;47
77954;BME280;67151;52.544;6.034;2023-08-30T01:23:02;100730;;;24.6;46.9
77954;BME280;67151;52.544;6.034;2023-08-30T01:23:19;100730;;;24.6;46.9
77954;BME280;67151;52.544;6.034;2023-08-30T01:23:35;100730;;;24.6;46.9
77954;BME280;67151;52.544;6.034;2023-08-30T01:23:47;100730;;;24.6;47
77954;BME280;67151;52.544;6.034;2023-08-30T01:24:02;100740;;;24.6;46.9